Hovedside
METAR-TAF:

METAR-TAF

Lufthavner :

Tsjita, Russland

breddegrad: 52-05N, lengdegrad: 113-29E, høyde over havet: 685 m

Gjeldene værobservasjon

Denne rapporten ble laget for 16 minutter siden, klokken 04:00 UTC
Vind 2 kt fra skiftende retning
Temperatur 2°C
Luftfuktighet 55%
Trykk 1013 hPa
Sikt 10 km eller mer

METAR: UIAA 240400Z VRB01MPS 9999 NSC 02/M06 Q1013 R29/70D NOSIG RMK QFE701/0935

Tid: 13:16 (04:16 UTC)

Varsel

Denne rapporten ble laget for 2 timer og 16 minutter siden, klokken 02:00 UTC
Varsel gyldig fra 24. klokken 03 UTC til 25. klokken 03 UTC
Vind 6 kt fra Sørvest med vindkast opp mot 16 kt
Sikt 10 km eller mer
Spredte skyer i en høyde av 4000 ft, Bygeskyer.
Midlertidig
fra 24. klokken 18 UTC til 24. klokken 24 UTC
Vind 10 kt fra Nord-nordøst med vindkast opp mot 19 kt
Sikt: 3100 m
Brutte skyer i en høyde av 1400 ft, Bygeskyer.
lette snøbyger

TAF: UIAA 240200Z 2403/2503 22003G08MPS 9999 SCT040CB TEMPO 2418/2424 02005G10MPS 3100 -SHSN BKN014CB

Værobservasjoner og værvarsel for over 4000 flyplasser (METAR- og TAF-rapporter).

Tilgjengelige stasjoner er representert av de røde og gule prikkene på kartet.

Hold musepekeren over prikken for å se navnet på stasjonen.

Klikk så for å se værobservasjoner og -varsler.

For å forandre kartet kan du klikke på den grønne knappen med svart kryss for å zoome inn, på den grønne knappen med strek for å zoome ut, eller på de grønne pilene for å se tilstøtende kart.


METAR-TAF: